Time;durP1;ratioP1;P1;durP2;ratioP2;P2;SDS_P1;SDS_P2;PMS_P1;PMS_P2;Temp;Humidity;BMP_temperature;BMP_pressure;BME280_temperature;BME280_humidity;BME280_pressure;Samples;Min_cycle;Max_cycle;Signal;HPM_P1;HPM_P2
2023/06/07 00:00:02;;;;;;;13.35;7.30;;;16.20;91.10;;;;;;6243217;23;20010;-72
2023/06/07 00:02:28;;;;;;;14.00;8.05;;;16.20;91.10;;;;;;6242989;23;20000;-71
2023/06/07 00:04:53;;;;;;;13.98;8.55;;;16.10;91.20;;;;;;6242313;23;20000;-72
2023/06/07 00:07:19;;;;;;;11.43;7.68;;;16.10;91.30;;;;;;6242866;23;20083;-71
2023/06/07 00:09:45;;;;;;;15.57;8.65;;;16.10;91.30;;;;;;6242799;23;20000;-72
2023/06/07 00:12:10;;;;;;;16.48;8.93;;;16.10;91.40;;;;;;6242983;23;20011;-72
2023/06/07 00:14:36;;;;;;;11.88;8.10;;;16.00;91.50;;;;;;6242946;23;20004;-72
2023/06/07 00:17:02;;;;;;;12.93;9.60;;;15.90;91.50;;;;;;6243031;23;20004;-72
2023/06/07 00:19:29;;;;;;;13.10;8.20;;;15.90;91.70;;;;;;6242288;23;20340;-72
2023/06/07 00:21:57;;;;;;;17.88;9.23;;;15.90;91.70;;;;;;6242519;23;20003;-72
2023/06/07 00:24:22;;;;;;;14.13;8.25;;;15.90;91.80;;;;;;6242590;23;20011;-72
2023/06/07 00:26:48;;;;;;;17.33;9.25;;;15.80;91.80;;;;;;6215477;23;20091;-71
2023/06/07 00:29:14;;;;;;;14.60;9.05;;;15.80;91.80;;;;;;6242409;23;20422;-72
2023/06/07 00:31:40;;;;;;;14.10;9.07;;;15.70;91.90;;;;;;6242341;23;20018;-71
2023/06/07 00:34:06;;;;;;;12.20;8.13;;;15.70;91.90;;;;;;6242288;23;20027;-72
2023/06/07 00:36:34;;;;;;;10.82;7.43;;;15.70;92.00;;;;;;6215635;23;20000;-72
2023/06/07 00:38:59;;;;;;;15.05;8.23;;;15.60;92.20;;;;;;6242625;23;20008;-72
2023/06/07 00:41:25;;;;;;;12.32;7.95;;;15.50;92.20;;;;;;6242405;23;20174;-71
2023/06/07 00:43:50;;;;;;;16.83;9.27;;;15.50;92.30;;;;;;6242372;23;20364;-72
2023/06/07 00:46:21;;;;;;;13.85;8.05;;;15.50;92.40;;;;;;6242475;23;19999;-71
2023/06/07 00:48:49;;;;;;;16.38;9.30;;;15.50;92.50;;;;;;6214887;23;20398;-72
2023/06/07 00:51:15;;;;;;;8.45;7.00;;;15.50;92.50;;;;;;6242415;23;20306;-71
2023/06/07 00:53:42;;;;;;;12.10;8.13;;;15.40;92.60;;;;;;6242409;23;20000;-72
2023/06/07 00:56:08;;;;;;;10.90;7.38;;;15.40;92.60;;;;;;6242564;23;20062;-72
2023/06/07 00:58:34;;;;;;;12.15;7.30;;;15.30;92.70;;;;;;6242620;23;20004;-72
2023/06/07 01:01:01;;;;;;;11.18;8.23;;;15.30;92.80;;;;;;6242158;23;20011;-72
2023/06/07 01:03:29;;;;;;;15.80;8.90;;;15.30;92.90;;;;;;6241745;23;20078;-72
2023/06/07 01:05:54;;;;;;;16.35;7.68;;;15.20;93.00;;;;;;6242405;23;20068;-71
2023/06/07 01:08:21;;;;;;;14.90;7.35;;;15.30;93.00;;;;;;6241777;23;20106;-71
2023/06/07 01:10:48;;;;;;;12.38;8.13;;;15.20;93.00;;;;;;6242249;23;19996;-73
2023/06/07 01:13:15;;;;;;;12.18;7.43;;;15.20;93.10;;;;;;6242127;23;20004;-72
2023/06/07 01:15:41;;;;;;;12.93;8.48;;;15.20;93.10;;;;;;6242434;23;20004;-72
2023/06/07 01:18:09;;;;;;;15.98;7.85;;;15.20;93.20;;;;;;6241924;23;20444;-72
2023/06/07 01:20:36;;;;;;;14.55;9.60;;;15.20;93.30;;;;;;6242174;23;20000;-72
2023/06/07 01:23:05;;;;;;;11.82;7.20;;;15.20;93.40;;;;;;6242254;23;20087;-73
2023/06/07 01:25:31;;;;;;;12.48;8.07;;;15.20;93.40;;;;;;6242166;23;20012;-72
2023/06/07 01:28:00;;;;;;;16.23;7.97;;;15.10;93.50;;;;;;6241743;23;20120;-72
2023/06/07 01:30:31;;;;;;;13.27;8.98;;;15.10;93.60;;;;;;6242046;23;20000;-72
2023/06/07 01:32:58;;;;;;;17.92;7.97;;;15.10;93.70;;;;;;6241803;23;20083;-72
2023/06/07 01:35:24;;;;;;;10.95;7.13;;;15.00;93.70;;;;;;6241958;23;20001;-72
2023/06/07 01:37:51;;;;;;;11.27;7.63;;;15.00;93.80;;;;;;6241902;23;20004;-72
2023/06/07 01:40:19;;;;;;;10.15;7.78;;;14.90;93.90;;;;;;6214795;23;20252;-72
2023/06/07 01:42:45;;;;;;;16.75;9.15;;;14.90;94.00;;;;;;6241985;23;20004;-72
2023/06/07 01:45:12;;;;;;;16.10;7.95;;;14.90;94.20;;;;;;6214212;23;20080;-72
2023/06/07 01:47:38;;;;;;;15.13;8.70;;;14.90;94.20;;;;;;6241924;23;20034;-72
2023/06/07 01:50:05;;;;;;;13.15;8.00;;;14.80;94.30;;;;;;6215353;23;19996;-72
2023/06/07 01:52:31;;;;;;;12.77;6.38;;;14.80;94.40;;;;;;6241766;23;20000;-72
2023/06/07 01:54:56;;;;;;;13.15;7.78;;;14.80;94.40;;;;;;6241989;23;20004;-72
2023/06/07 01:57:45;;;;;;;14.40;8.32;;;14.80;94.40;;;;;;6241770;23;20004;-73
2023/06/07 02:00:18;;;;;;;11.70;8.15;;;14.80;94.60;;;;;;6214816;23;20295;-72
2023/06/07 02:03:01;;;;;;;12.68;7.70;;;14.70;94.60;;;;;;6241688;23;20004;-72
2023/06/07 02:05:40;;;;;;;12.77;6.90;;;14.80;94.60;;;;;;6241874;23;20438;-72
2023/06/07 02:08:19;;;;;;;13.75;8.05;;;14.70;94.60;;;;;;6241907;23;20079;-72
2023/06/07 02:10:46;;;;;;;15.13;7.65;;;14.70;94.70;;;;;;6241751;23;20027;-72
2023/06/07 02:13:12;;;;;;;12.98;7.68;;;14.70;94.80;;;;;;6241834;23;20340;-72
2023/06/07 02:15:38;;;;;;;14.38;8.00;;;14.70;94.90;;;;;;6241250;23;20001;-72
2023/06/07 02:18:04;;;;;;;13.60;7.32;;;14.70;94.90;;;;;;6241739;23;20003;-72
2023/06/07 02:20:34;;;;;;;13.13;7.53;;;14.70;95.00;;;;;;6241245;23;20027;-72
2023/06/07 02:23:00;;;;;;;15.88;7.93;;;14.60;95.10;;;;;;6241782;23;20008;-72
2023/06/07 02:25:26;;;;;;;13.18;7.88;;;14.60;95.10;;;;;;6241260;23;20083;-72
2023/06/07 02:27:52;;;;;;;12.13;7.97;;;14.60;95.10;;;;;;6241014;23;20008;-72
2023/06/07 02:30:20;;;;;;;14.07;7.60;;;14.60;95.10;;;;;;6241064;23;20070;-72
2023/06/07 02:32:48;;;;;;;15.25;8.38;;;14.60;95.20;;;;;;6241194;23;20014;-72
2023/06/07 02:35:15;;;;;;;16.40;7.85;;;14.60;95.20;;;;;;6241637;23;20014;-72
2023/06/07 02:37:40;;;;;;;16.85;8.43;;;14.60;95.30;;;;;;6241216;23;20007;-72
2023/06/07 02:40:08;;;;;;;12.75;8.20;;;14.60;95.40;;;;;;6241485;23;20008;-73
2023/06/07 02:42:35;;;;;;;13.80;7.25;;;14.50;95.40;;;;;;6241240;23;20436;-72
2023/06/07 02:45:02;;;;;;;13.95;8.18;;;14.50;95.50;;;;;;6239949;23;20113;-72
2023/06/07 02:47:28;;;;;;;17.10;9.38;;;14.40;95.60;;;;;;6240524;23;20000;-72
2023/06/07 02:49:54;;;;;;;12.50;8.20;;;14.40;95.70;;;;;;6240356;23;19999;-72
2023/06/07 02:52:20;;;;;;;15.15;8.13;;;14.40;95.80;;;;;;6239258;23;20000;-72
2023/06/07 02:54:45;;;;;;;12.95;7.78;;;14.30;96.20;;;;;;6240146;23;20019;-72
2023/06/07 02:57:11;;;;;;;14.00;7.40;;;14.30;96.00;;;;;;6240333;23;20008;-72
2023/06/07 02:59:39;;;;;;;11.43;7.63;;;14.30;96.10;;;;;;6240738;23;20077;-72
2023/06/07 03:02:05;;;;;;;11.85;7.60;;;14.30;96.20;;;;;;6214474;23;20342;-72
2023/06/07 03:04:31;;;;;;;14.82;8.05;;;14.20;96.20;;;;;;6241251;23;20087;-72
2023/06/07 03:06:57;;;;;;;17.20;7.75;;;14.20;96.30;;;;;;6241173;23;20389;-72
2023/06/07 03:09:22;;;;;;;12.27;7.75;;;14.20;96.30;;;;;;6240790;23;20441;-72
2023/06/07 03:11:48;;;;;;;12.63;6.45;;;14.10;96.40;;;;;;6240006;23;20004;-72
2023/06/07 03:14:14;;;;;;;10.63;7.85;;;14.10;96.50;;;;;;6239530;23;20007;-72
2023/06/07 03:16:40;;;;;;;8.75;6.65;;;14.10;96.60;;;;;;6239097;23;20008;-72
2023/06/07 03:19:06;;;;;;;13.63;8.07;;;14.00;96.60;;;;;;6240740;23;20322;-72
2023/06/07 03:21:31;;;;;;;10.90;7.03;;;14.10;96.70;;;;;;6241055;23;20067;-72
2023/06/07 03:23:57;;;;;;;17.23;8.10;;;14.10;96.80;;;;;;6240878;23;20508;-72
2023/06/07 03:26:22;;;;;;;13.82;7.20;;;14.10;96.90;;;;;;6241009;23;20033;-72
2023/06/07 03:28:49;;;;;;;14.43;6.53;;;14.10;96.90;;;;;;6240286;23;20434;-72
2023/06/07 03:31:14;;;;;;;15.10;7.30;;;14.10;96.90;;;;;;6240950;23;20451;-73
2023/06/07 03:33:40;;;;;;;17.05;8.43;;;14.00;97.00;;;;;;6243221;23;20015;-72
2023/06/07 03:36:07;;;;;;;15.18;8.73;;;13.90;97.10;;;;;;6243189;23;20000;-72
2023/06/07 03:38:33;;;;;;;12.88;7.25;;;14.00;97.20;;;;;;6243220;23;20382;-72
2023/06/07 03:40:59;;;;;;;12.18;9.38;;;13.90;97.30;;;;;;6242940;23;20042;-72
2023/06/07 03:43:24;;;;;;;14.38;7.63;;;13.90;97.40;;;;;;6242434;23;20118;-72
2023/06/07 03:45:50;;;;;;;11.00;7.95;;;13.90;97.40;;;;;;6216078;23;20032;-72
2023/06/07 03:48:16;;;;;;;12.98;7.25;;;13.90;97.50;;;;;;6242969;23;20004;-72
2023/06/07 03:50:41;;;;;;;17.20;9.07;;;13.90;97.60;;;;;;6215982;23;20078;-72
2023/06/07 03:53:07;;;;;;;9.75;7.03;;;13.90;97.70;;;;;;6243232;23;20007;-72
2023/06/07 03:55:33;;;;;;;13.75;8.38;;;13.90;97.80;;;;;;6243000;23;20001;-72
2023/06/07 03:57:59;;;;;;;15.40;7.72;;;13.90;97.80;;;;;;6242425;23;20012;-72
2023/06/07 04:00:27;;;;;;;14.68;7.63;;;13.90;97.80;;;;;;6242737;23;20330;-72
2023/06/07 04:02:53;;;;;;;16.42;7.45;;;13.90;97.90;;;;;;6215916;23;20015;-72
2023/06/07 04:05:19;;;;;;;14.50;8.25;;;13.90;98.00;;;;;;6242785;23;20003;-72
2023/06/07 04:07:46;;;;;;;15.93;7.43;;;13.90;98.00;;;;;;6242927;23;20067;-72
2023/06/07 04:10:12;;;;;;;13.32;7.57;;;14.00;98.00;;;;;;6242345;23;20042;-72
2023/06/07 04:12:37;;;;;;;19.48;7.13;;;13.90;98.00;;;;;;6242777;23;20430;-72
2023/06/07 04:15:03;;;;;;;13.20;7.78;;;14.00;98.00;;;;;;6243096;23;20460;-72
2023/06/07 04:17:28;;;;;;;13.57;7.15;;;14.00;98.00;;;;;;6242786;23;20003;-71
2023/06/07 04:19:56;;;;;;;13.27;7.88;;;13.90;98.10;;;;;;6242889;23;20502;-72
2023/06/07 04:22:22;;;;;;;15.07;8.20;;;13.90;98.10;;;;;;6215681;23;20000;-72
2023/06/07 04:24:49;;;;;;;14.00;7.35;;;13.90;98.20;;;;;;6242220;23;20473;-72
2023/06/07 04:27:18;;;;;;;11.45;7.47;;;13.90;98.20;;;;;;6242223;23;20022;-72
2023/06/07 04:29:44;;;;;;;13.90;8.07;;;13.90;98.20;;;;;;6215704;23;20011;-72
2023/06/07 04:32:09;;;;;;;10.75;6.50;;;13.90;98.30;;;;;;6215759;23;20004;-72
2023/06/07 04:34:41;;;;;;;11.82;7.53;;;14.00;98.30;;;;;;6242288;23;20415;-72
2023/06/07 04:37:07;;;;;;;16.15;7.97;;;14.00;98.30;;;;;;6242709;23;20062;-72
2023/06/07 04:39:36;;;;;;;14.95;7.75;;;14.00;98.30;;;;;;6241941;23;20004;-72
2023/06/07 04:42:05;;;;;;;14.45;7.28;;;14.10;98.30;;;;;;6242523;23;20007;-72
2023/06/07 04:44:31;;;;;;;16.50;7.55;;;14.10;98.30;;;;;;6241867;23;20031;-72
2023/06/07 04:46:57;;;;;;;19.23;8.10;;;14.20;98.30;;;;;;6215489;23;20056;-72
2023/06/07 04:49:23;;;;;;;15.27;7.40;;;14.20;98.20;;;;;;6242591;23;20073;-72
2023/06/07 04:51:50;;;;;;;15.73;7.32;;;14.20;98.20;;;;;;6242487;23;20001;-72
2023/06/07 04:54:16;;;;;;;16.13;7.38;;;14.20;98.20;;;;;;6241840;23;20005;-72
2023/06/07 04:56:42;;;;;;;13.55;8.07;;;14.20;98.20;;;;;;6242293;23;20000;-72
2023/06/07 04:59:08;;;;;;;11.95;6.82;;;14.30;98.20;;;;;;6215751;23;20074;-72
2023/06/07 05:01:34;;;;;;;13.88;6.30;;;14.30;98.10;;;;;;6242444;23;20035;-72
2023/06/07 05:04:00;;;;;;;14.43;6.63;;;14.40;98.00;;;;;;6242189;23;20398;-72
2023/06/07 05:06:28;;;;;;;10.43;6.15;;;14.40;98.00;;;;;;6242228;23;20004;-72
2023/06/07 05:08:54;;;;;;;10.07;6.25;;;14.40;97.90;;;;;;6241655;23;20504;-72
2023/06/07 05:11:20;;;;;;;13.82;7.20;;;14.30;97.90;;;;;;6215077;23;20476;-72
2023/06/07 05:13:46;;;;;;;14.90;7.57;;;14.40;98.00;;;;;;6242248;23;20000;-72
2023/06/07 05:16:16;;;;;;;14.07;7.00;;;14.50;98.00;;;;;;6242070;23;20077;-72
2023/06/07 05:18:48;;;;;;;17.02;7.57;;;14.50;97.90;;;;;;6242267;23;20426;-72
2023/06/07 05:21:17;;;;;;;13.57;7.15;;;14.60;97.90;;;;;;6242095;23;20099;-72
2023/06/07 05:23:44;;;;;;;12.68;7.28;;;14.60;97.80;;;;;;6241739;23;20004;-72
2023/06/07 05:26:09;;;;;;;13.52;8.25;;;14.70;97.80;;;;;;6242199;23;20004;-72
2023/06/07 05:28:35;;;;;;;19.58;9.27;;;14.80;97.70;;;;;;6241939;23;20074;-72
2023/06/07 05:31:01;;;;;;;19.02;7.65;;;14.80;97.60;;;;;;6241941;23;20015;-72
2023/06/07 05:33:30;;;;;;;10.20;6.13;;;14.90;97.60;;;;;;6242109;23;20027;-72
2023/06/07 05:35:56;;;;;;;15.57;7.63;;;15.00;97.40;;;;;;6241900;23;20028;-72
2023/06/07 05:38:22;;;;;;;12.38;6.70;;;15.00;97.30;;;;;;6240396;23;20141;-72
2023/06/07 05:40:48;;;;;;;19.98;6.85;;;15.10;97.10;;;;;;6241248;23;20131;-72
2023/06/07 05:43:13;;;;;;;15.63;7.30;;;15.10;97.00;;;;;;6240666;23;20035;-72
2023/06/07 05:45:40;;;;;;;10.73;6.18;;;15.20;97.00;;;;;;6241295;23;20383;-72
2023/06/07 05:48:06;;;;;;;13.60;6.70;;;15.20;96.80;;;;;;6241348;23;19996;-72
2023/06/07 05:50:32;;;;;;;13.10;7.43;;;15.30;96.80;;;;;;6241656;23;20003;-72
2023/06/07 05:52:58;;;;;;;16.20;8.40;;;15.40;96.80;;;;;;6241442;23;20016;-72
2023/06/07 05:55:25;;;;;;;13.20;8.02;;;15.40;96.70;;;;;;6241125;23;20007;-72
2023/06/07 05:57:51;;;;;;;13.98;6.50;;;15.50;96.70;;;;;;6241269;23;20284;-72
2023/06/07 06:00:17;;;;;;;13.93;7.25;;;15.50;96.50;;;;;;6241656;23;20000;-73
2023/06/07 06:02:46;;;;;;;11.07;7.15;;;15.50;96.40;;;;;;6241382;23;20001;-72
2023/06/07 06:05:12;;;;;;;12.98;6.40;;;15.50;96.40;;;;;;6241646;23;20301;-72
2023/06/07 06:07:38;;;;;;;14.98;7.93;;;15.50;96.40;;;;;;6241132;23;20008;-73
2023/06/07 06:10:04;;;;;;;12.95;6.90;;;15.50;96.40;;;;;;6241594;23;20085;-73
2023/06/07 06:12:30;;;;;;;16.58;6.68;;;15.60;96.30;;;;;;6214582;23;20747;-72
2023/06/07 06:14:56;;;;;;;16.67;7.32;;;15.70;96.30;;;;;;6241137;23;20250;-72
2023/06/07 06:17:22;;;;;;;17.25;7.47;;;15.70;96.20;;;;;;6241372;23;20558;-72
2023/06/07 06:19:48;;;;;;;15.73;7.03;;;15.70;96.10;;;;;;6241787;23;20071;-72
2023/06/07 06:22:13;;;;;;;16.85;7.30;;;15.70;96.10;;;;;;6240935;23;20028;-73
2023/06/07 06:24:39;;;;;;;11.40;7.80;;;15.80;96.00;;;;;;6240988;23;20011;-72
2023/06/07 06:27:06;;;;;;;15.85;6.30;;;15.80;95.80;;;;;;6241205;23;20069;-72
2023/06/07 06:29:32;;;;;;;13.93;6.50;;;15.80;95.80;;;;;;6241182;23;20004;-72
2023/06/07 06:31:59;;;;;;;17.27;7.70;;;15.90;95.90;;;;;;6241536;23;20003;-73
2023/06/07 06:34:24;;;;;;;17.55;7.07;;;16.10;95.70;;;;;;6241419;23;20130;-72
2023/06/07 06:36:50;;;;;;;12.32;6.68;;;16.20;95.60;;;;;;6241001;23;20035;-72
2023/06/07 06:39:16;;;;;;;16.17;7.20;;;16.30;95.40;;;;;;6214275;23;20011;-73
2023/06/07 06:41:42;;;;;;;14.65;8.25;;;16.40;95.00;;;;;;6241222;23;20004;-72
2023/06/07 06:44:07;;;;;;;16.85;8.63;;;16.30;94.80;;;;;;6240635;23;20027;-73
2023/06/07 06:46:33;;;;;;;21.73;8.52;;;16.30;94.80;;;;;;6240925;23;20069;-72
2023/06/07 06:49:02;;;;;;;14.38;8.05;;;16.30;94.80;;;;;;6240392;23;20004;-72
2023/06/07 06:51:27;;;;;;;20.70;9.50;;;16.30;94.70;;;;;;6213364;23;20390;-72
2023/06/07 06:53:53;;;;;;;16.67;7.72;;;16.30;94.70;;;;;;6241325;23;20028;-72
2023/06/07 06:56:18;;;;;;;13.05;7.72;;;16.30;94.70;;;;;;6241387;23;20033;-72
2023/06/07 06:58:46;;;;;;;14.77;7.90;;;16.30;94.70;;;;;;6241331;23;20004;-72
2023/06/07 07:01:14;;;;;;;17.42;8.23;;;16.40;94.80;;;;;;6240944;23;20083;-72
2023/06/07 07:03:40;;;;;;;13.13;8.30;;;16.30;94.60;;;;;;6241199;23;20057;-72
2023/06/07 07:06:07;;;;;;;16.98;9.32;;;16.30;94.60;;;;;;6240725;23;20002;-72
2023/06/07 07:08:34;;;;;;;15.98;7.70;;;16.30;94.60;;;;;;6241338;23;20000;-71
2023/06/07 07:11:00;;;;;;;11.85;8.68;;;16.30;94.70;;;;;;6240985;23;20117;-72
2023/06/07 07:13:25;;;;;;;17.50;8.25;;;16.30;94.70;;;;;;6241321;23;20707;-72
2023/06/07 07:15:51;;;;;;;15.52;7.85;;;16.30;94.60;;;;;;6241170;23;20430;-72
2023/06/07 07:18:17;;;;;;;13.02;7.50;;;16.30;94.60;;;;;;6241020;23;20422;-71
2023/06/07 07:20:42;;;;;;;13.18;7.57;;;16.30;94.90;;;;;;6240592;23;20004;-72
2023/06/07 07:23:08;;;;;;;19.83;8.73;;;16.30;94.50;;;;;;6241145;23;20081;-72
2023/06/07 07:25:34;;;;;;;19.08;8.27;;;16.30;94.50;;;;;;6214353;23;20146;-72
2023/06/07 07:27:59;;;;;;;14.20;9.00;;;16.20;94.40;;;;;;6240915;23;20023;-72
2023/06/07 07:30:25;;;;;;;17.17;9.63;;;16.20;94.40;;;;;;6241081;23;20000;-73
2023/06/07 07:32:50;;;;;;;18.20;7.55;;;16.20;94.40;;;;;;6240997;23;20005;-72
2023/06/07 07:35:16;;;;;;;17.73;8.70;;;16.30;94.50;;;;;;6240667;23;20001;-72
2023/06/07 07:37:44;;;;;;;14.43;7.40;;;16.30;94.50;;;;;;6241338;23;20310;-72
2023/06/07 07:40:09;;;;;;;17.70;8.13;;;16.50;94.50;;;;;;6241055;23;20319;-73
2023/06/07 07:42:35;;;;;;;15.85;8.93;;;16.60;94.60;;;;;;6240978;23;19996;-71
2023/06/07 07:45:01;;;;;;;18.08;9.65;;;16.70;94.30;;;;;;6240875;23;20040;-71
2023/06/07 07:47:26;;;;;;;15.43;8.80;;;16.70;94.20;;;;;;6240820;23;20267;-71
2023/06/07 07:49:52;;;;;;;18.80;8.75;;;16.80;94.20;;;;;;6240492;23;20032;-71
2023/06/07 07:52:17;;;;;;;13.93;7.72;;;17.00;94.10;;;;;;6241166;23;20003;-70
2023/06/07 07:54:43;;;;;;;18.38;8.23;;;17.20;93.90;;;;;;6241066;23;20000;-70
2023/06/07 07:57:10;;;;;;;14.63;6.78;;;17.40;93.60;;;;;;6241283;23;20422;-70
2023/06/07 07:59:36;;;;;;;13.95;7.75;;;17.60;93.40;;;;;;6241565;23;20023;-71
2023/06/07 08:02:01;;;;;;;15.25;7.57;;;17.90;93.00;;;;;;6241319;23;20368;-70
2023/06/07 08:04:27;;;;;;;11.80;7.10;;;18.20;92.70;;;;;;6240327;23;20008;-71
2023/06/07 08:06:52;;;;;;;13.65;7.80;;;18.40;92.30;;;;;;6240047;23;20003;-70
2023/06/07 08:09:18;;;;;;;15.27;8.07;;;18.50;91.60;;;;;;6235557;23;19997;-70
2023/06/07 08:11:43;;;;;;;13.52;8.35;;;18.50;91.50;;;;;;6240344;23;19996;-71
2023/06/07 08:14:09;;;;;;;16.38;7.85;;;18.40;91.30;;;;;;6240812;23;20364;-71
2023/06/07 08:16:35;;;;;;;12.80;7.13;;;18.40;91.20;;;;;;6239808;23;20474;-71
2023/06/07 08:19:00;;;;;;;13.98;7.45;;;18.30;91.30;;;;;;6241320;23;20279;-71
2023/06/07 08:21:26;;;;;;;13.63;7.55;;;18.40;91.20;;;;;;6240887;23;20010;-71
2023/06/07 08:23:55;;;;;;;13.57;9.15;;;18.50;91.10;;;;;;6241257;23;20043;-71
2023/06/07 08:26:21;;;;;;;14.02;8.40;;;18.50;91.00;;;;;;6241784;23;20011;-71
2023/06/07 08:28:46;;;;;;;11.55;7.07;;;18.50;91.00;;;;;;6242528;23;20446;-71
2023/06/07 08:31:12;;;;;;;11.80;8.40;;;18.60;91.10;;;;;;6239387;23;20061;-70
2023/06/07 08:33:38;;;;;;;13.88;8.10;;;18.70;90.90;;;;;;6241820;23;20074;-70
2023/06/07 08:36:04;;;;;;;14.80;7.25;;;18.70;90.80;;;;;;6241460;23;20008;-70
2023/06/07 08:38:29;;;;;;;13.55;7.65;;;18.60;90.90;;;;;;6242383;23;20000;-70
2023/06/07 08:40:55;;;;;;;9.38;8.13;;;18.60;91.00;;;;;;6241586;23;20014;-71
2023/06/07 08:43:21;;;;;;;10.90;7.47;;;18.60;91.00;;;;;;6241305;23;20028;-71
2023/06/07 08:45:51;;;;;;;16.60;7.93;;;18.60;90.90;;;;;;6241172;23;20319;-71
2023/06/07 08:48:17;;;;;;;15.52;8.30;;;18.70;90.90;;;;;;6242387;23;20004;-71
2023/06/07 08:50:45;;;;;;;12.10;7.63;;;18.80;90.90;;;;;;6241910;23;20034;-71
2023/06/07 08:53:15;;;;;;;10.25;6.53;;;18.90;90.70;;;;;;6241137;23;20429;-71
2023/06/07 08:55:41;;;;;;;16.13;8.55;;;19.00;90.80;;;;;;6242675;23;20028;-71
2023/06/07 08:58:07;;;;;;;10.38;6.90;;;19.10;90.40;;;;;;6242777;23;20122;-70
2023/06/07 09:00:33;;;;;;;11.25;6.88;;;19.20;90.20;;;;;;6241599;23;20024;-71
2023/06/07 09:02:59;;;;;;;12.45;7.13;;;19.30;90.00;;;;;;6240828;23;20222;-71
2023/06/07 09:05:24;;;;;;;18.77;7.80;;;19.40;89.70;;;;;;6240733;23;20000;-71
2023/06/07 09:07:50;;;;;;;10.52;6.68;;;19.40;89.70;;;;;;6242249;23;20039;-71
2023/06/07 09:10:20;;;;;;;17.95;7.53;;;19.50;90.00;;;;;;6241243;23;19999;-71
2023/06/07 09:12:46;;;;;;;12.90;6.93;;;19.60;89.80;;;;;;6215017;23;20046;-71
2023/06/07 09:15:20;;;;;;;10.65;6.45;;;19.70;89.80;;;;;;6239833;23;20054;-71
2023/06/07 09:18:04;;;;;;;13.48;6.88;;;19.80;89.20;;;;;;6241981;23;20004;-70
2023/06/07 09:20:31;;;;;;;8.48;6.00;;;19.80;88.60;;;;;;6241816;23;20031;-70
2023/06/07 09:22:59;;;;;;;11.85;6.13;;;19.80;88.90;;;;;;6241861;23;20042;-70
2023/06/07 09:25:26;;;;;;;12.30;6.38;;;19.80;88.50;;;;;;6213717;23;20015;-70
2023/06/07 09:27:53;;;;;;;13.98;6.30;;;19.80;89.00;;;;;;6241763;23;20012;-71
2023/06/07 09:30:19;;;;;;;15.65;7.47;;;20.00;89.20;;;;;;6241097;22;20022;-70
2023/06/07 09:32:45;;;;;;;11.57;6.95;;;20.00;89.20;;;;;;6242059;23;20031;-70
2023/06/07 09:35:14;;;;;;;14.40;7.30;;;20.10;88.40;;;;;;6242228;23;20004;-70
2023/06/07 09:37:45;;;;;;;11.38;6.38;;;20.20;88.20;;;;;;6240763;23;20252;-71
2023/06/07 09:40:13;;;;;;;10.15;5.93;;;20.20;87.80;;;;;;6241504;23;20003;-70
2023/06/07 09:42:39;;;;;;;11.85;6.90;;;20.30;88.00;;;;;;6241849;23;20050;-71
2023/06/07 09:45:15;;;;;;;13.07;7.10;;;20.40;87.40;;;;;;6214298;23;20004;-71
2023/06/07 09:47:44;;;;;;;9.52;6.45;;;20.50;86.70;;;;;;6240082;23;20000;-71
2023/06/07 09:50:12;;;;;;;12.25;7.72;;;20.50;86.70;;;;;;6241427;23;20004;-70
2023/06/07 09:52:38;;;;;;;11.75;6.75;;;20.50;86.60;;;;;;6241730;23;20000;-71
2023/06/07 09:55:24;;;;;;;11.68;7.57;;;20.50;86.90;;;;;;6241528;23;20083;-72
2023/06/07 09:57:50;;;;;;;16.10;8.82;;;20.50;86.40;;;;;;6240927;23;20481;-72
2023/06/07 10:00:18;;;;;;;16.38;7.25;;;20.50;86.80;;;;;;6238759;23;20022;-74
2023/06/07 10:02:46;;;;;;;13.07;8.82;;;20.40;87.60;;;;;;6240552;23;19996;-73
2023/06/07 10:05:14;;;;;;;13.43;7.82;;;20.50;88.90;;;;;;6238712;23;20000;-72
2023/06/07 10:07:45;;;;;;;13.45;8.18;;;20.50;90.00;;;;;;6240957;23;20119;-73
2023/06/07 10:10:12;;;;;;;13.57;8.55;;;20.40;90.60;;;;;;6237661;23;20004;-73
2023/06/07 10:12:42;;;;;;;13.80;7.95;;;20.30;90.30;;;;;;6240137;23;20059;-73
2023/06/07 10:15:10;;;;;;;14.60;9.25;;;20.30;90.50;;;;;;6241404;23;20000;-73
2023/06/07 10:17:59;;;;;;;15.00;8.80;;;20.20;91.00;;;;;;6240897;23;19997;-73
2023/06/07 10:20:30;;;;;;;13.43;8.77;;;20.30;90.70;;;;;;6239345;23;20061;-73
2023/06/07 10:23:03;;;;;;;10.90;7.65;;;20.30;90.80;;;;;;6239915;23;20041;-73
2023/06/07 10:25:31;;;;;;;12.38;7.75;;;20.30;90.90;;;;;;6238281;23;20035;-73
2023/06/07 10:28:06;;;;;;;14.00;7.32;;;20.30;90.10;;;;;;6239900;23;20023;-73
2023/06/07 10:30:34;;;;;;;10.75;8.15;;;20.30;90.20;;;;;;6241246;23;20000;-73
2023/06/07 10:33:03;;;;;;;12.07;8.48;;;20.40;90.20;;;;;;6212984;23;20362;-72
2023/06/07 10:35:29;;;;;;;10.18;7.00;;;20.60;90.40;;;;;;6241297;23;20001;-73
2023/06/07 10:37:56;;;;;;;9.70;7.78;;;20.90;90.20;;;;;;6241803;23;20071;-72
2023/06/07 10:40:22;;;;;;;11.10;7.10;;;21.10;89.70;;;;;;6241821;23;20011;-73
2023/06/07 10:42:49;;;;;;;11.25;8.25;;;21.40;89.10;;;;;;6241564;23;20456;-73
2023/06/07 10:45:19;;;;;;;10.45;7.55;;;21.50;87.90;;;;;;6240120;23;20000;-73
2023/06/07 10:47:46;;;;;;;12.93;8.35;;;21.60;87.20;;;;;;6241339;23;20417;-73
2023/06/07 10:50:47;;;;;;;12.57;8.27;;;21.60;86.60;;;;;;6241547;23;20000;-73
2023/06/07 10:53:12;;;;;;;13.95;7.82;;;21.60;85.90;;;;;;6241490;23;20004;-73
2023/06/07 10:55:38;;;;;;;14.85;7.38;;;21.60;86.30;;;;;;6241459;23;20382;-73
2023/06/07 10:58:27;;;;;;;8.98;6.88;;;21.80;86.10;;;;;;6240880;23;20004;-73
2023/06/07 11:00:54;;;;;;;8.07;5.93;;;21.80;85.00;;;;;;6241427;23;19996;-73
2023/06/07 11:03:22;;;;;;;10.65;6.75;;;21.90;84.60;;;;;;6240942;23;20511;-73
2023/06/07 11:06:02;;;;;;;8.77;6.78;;;22.10;84.30;;;;;;6241307;23;19996;-73
2023/06/07 11:08:30;;;;;;;9.25;4.18;;;22.30;82.70;;;;;;6214148;23;20004;-73
2023/06/07 11:11:00;;;;;;;14.15;5.95;;;22.40;82.80;;;;;;6240271;23;20091;-72
2023/06/07 11:13:44;;;;;;;14.43;6.68;;;22.30;81.70;;;;;;6241197;23;20004;-73
2023/06/07 11:16:25;;;;;;;8.95;5.40;;;22.30;81.90;;;;;;6240035;23;20414;-73
2023/06/07 11:19:03;;;;;;;12.65;5.82;;;22.40;81.10;;;;;;6240549;23;20004;-73
2023/06/07 11:21:30;;;;;;;13.95;5.57;;;22.40;81.00;;;;;;6240856;23;20422;-73
2023/06/07 11:24:12;;;;;;;8.15;5.05;;;22.50;80.80;;;;;;6213991;23;20016;-73
2023/06/07 11:26:38;;;;;;;11.52;5.22;;;22.60;80.60;;;;;;6240397;23;20078;-72
2023/06/07 11:29:05;;;;;;;9.50;5.43;;;22.60;80.10;;;;;;6241349;23;20648;-73
2023/06/07 11:31:31;;;;;;;11.88;5.70;;;22.70;80.40;;;;;;6241150;23;20079;-73
2023/06/07 11:33:57;;;;;;;4.88;3.88;;;22.80;80.50;;;;;;6241392;23;20008;-73
2023/06/07 11:36:22;;;;;;;7.50;5.57;;;22.90;80.40;;;;;;6240989;23;20004;-73
2023/06/07 11:38:49;;;;;;;10.32;5.55;;;23.00;79.80;;;;;;6241385;23;20046;-72
2023/06/07 11:41:15;;;;;;;12.73;5.65;;;23.00;79.50;;;;;;6240584;23;20011;-73
2023/06/07 11:43:40;;;;;;;10.70;5.20;;;23.10;79.60;;;;;;6239995;23;20012;-73
2023/06/07 11:46:06;;;;;;;10.88;6.20;;;23.10;78.80;;;;;;6240995;23;20008;-73
2023/06/07 11:48:32;;;;;;;9.68;4.68;;;23.00;78.30;;;;;;6240305;23;20050;-73
2023/06/07 11:51:00;;;;;;;8.82;4.70;;;23.00;79.20;;;;;;6240508;23;20088;-73
2023/06/07 11:53:30;;;;;;;11.55;4.90;;;23.10;79.30;;;;;;6242337;23;20034;-73
2023/06/07 11:55:56;;;;;;;11.07;5.28;;;23.10;79.00;;;;;;6242863;23;20418;-73
2023/06/07 11:58:23;;;;;;;12.02;4.80;;;23.20;78.60;;;;;;6243208;23;20039;-73
2023/06/07 12:00:49;;;;;;;9.80;6.10;;;23.30;78.60;;;;;;6243023;23;20007;-73
2023/06/07 12:03:16;;;;;;;9.43;4.57;;;23.50;78.50;;;;;;6242810;23;20012;-73
2023/06/07 12:05:43;;;;;;;8.43;4.88;;;23.70;78.70;;;;;;6243279;23;20004;-73
2023/06/07 12:08:16;;;;;;;7.40;5.28;;;23.80;78.30;;;;;;6243239;23;20126;-73
2023/06/07 12:10:45;;;;;;;12.82;5.63;;;23.90;77.50;;;;;;6242294;23;20000;-73
2023/06/07 12:13:12;;;;;;;6.68;5.03;;;24.00;77.10;;;;;;6242415;23;20011;-73
2023/06/07 12:15:54;;;;;;;14.48;6.43;;;24.00;76.50;;;;;;6242997;23;20553;-73
2023/06/07 12:18:27;;;;;;;8.85;5.75;;;24.10;76.50;;;;;;6216007;23;20338;-73
2023/06/07 12:21:03;;;;;;;;;;;24.10;76.90;;;;;;6243482;23;20074;-73
2023/06/07 12:23:28;;;;;;;9.93;7.80;;;24.10;77.10;;;;;;6242199;23;19911;-73
2023/06/07 12:26:07;;;;;;;14.93;7.50;;;24.20;77.00;;;;;;6242180;23;20074;-73
2023/06/07 12:28:33;;;;;;;12.98;7.22;;;24.30;77.40;;;;;;6242203;23;20330;-73
2023/06/07 12:30:58;;;;;;;11.05;7.93;;;24.40;77.60;;;;;;6242005;23;20007;-73
2023/06/07 12:33:28;;;;;;;12.48;7.95;;;24.50;77.00;;;;;;6242595;23;20330;-71
2023/06/07 12:35:57;;;;;;;12.88;8.57;;;24.60;76.60;;;;;;6242784;23;20024;-71
2023/06/07 12:38:24;;;;;;;11.13;7.03;;;24.70;76.30;;;;;;6241915;23;20004;-71